Accueil
METAR-TAF:

METAR-TAF

Aéroports :

Aéroport de Schefferville

Schefferville, Québec, Canada

latitude: 54-48N, longitude: 066-48W, altitude: 521 m

Observation

Le bulletin a été fait il y a 20 minutes, à 03:00 UTC
Vent 5 kt de ouest/nord-ouest
Température 8°C
Humidité 76%
Pression 1017 hPa
Visibilité: 12.9 km
Ciel clair

METAR: CYKL 190300Z AUTO 30005KT 8SM CLR 08/04 A3004 RMK SLP189

Heure: 23:20 (03:20 UTC)

Prévision

Le bulletin a été fait il y a 1 heure et 36 minutes, à 01:44 UTC
Prévision valable du 19 à 02 UTC au 19 à 14 UTC
Vent 5 kt de ouest
Visibilité: 10 km
Quelques nuages à une hauteur de 4000 ft
Temporairement
du 19 à 02 UTC au 19 à 14 UTC
Visibilité: 4.8 km
brume sèche
Evoluant progressivement
du 19 à 11 UTC au 19 à 13 UTC
Vent 8 kt de sud/sud-ouest

TAF: CYKL 190144Z 1902/1914 26005KT P6SM FEW040 TEMPO 1902/1914 3SM HZ BECMG 1911/1913 20008KT RMK FCST BASED ON AUTO OBS. NXT FCST BY 190800Z

Observations et prévisions météorologiques de plus de 4000 aéroports (messages METAR et TAF).

Les stations disponibles sont représentées par des disques jaunes et rouges sur la carte.

Passer la souris dessus pour voir le nom de la station.

Cliquer dessus pour voir les observations et prévisions météorologiques.

Pour changer de carte: cliquez sur les boutons verts avec une croix noire pour zoomer, sur le bouton vert avec un tiret pour effectuer un zoom arrière, ou sur les flèches vertes pour les cartes adjacentes.


METAR-TAF: